Time;durP1;ratioP1;P1;durP2;ratioP2;P2;SDS_P1;SDS_P2;PMS_P1;PMS_P2;Temp;Humidity;BMP_temperature;BMP_pressure;BME280_temperature;BME280_humidity;BME280_pressure;Samples;Min_cycle;Max_cycle;Signal;HPM_P1;HPM_P2
2024/01/14 00:02:15;;;;;;;17.38;1.88;;;3.30;99.90;;;;;;5042419;28;20029;-68
2024/01/14 00:04:41;;;;;;;14.80;1.60;;;3.30;99.90;;;;;;5041742;28;20056;-68
2024/01/14 00:07:07;;;;;;;12.95;1.75;;;3.30;99.90;;;;;;5042167;28;20025;-68
2024/01/14 00:09:32;;;;;;;12.48;1.50;;;3.30;99.90;;;;;;5042190;28;20041;-68
2024/01/14 00:11:58;;;;;;;10.70;1.10;;;3.30;99.90;;;;;;5041755;28;20033;-69
2024/01/14 00:14:23;;;;;;;11.88;1.40;;;3.30;99.90;;;;;;5041010;28;20409;-68
2024/01/14 00:16:49;;;;;;;9.32;1.27;;;3.30;99.90;;;;;;5041741;28;20076;-66
2024/01/14 00:19:15;;;;;;;15.90;1.52;;;3.30;99.90;;;;;;5041433;28;20029;-68
2024/01/14 00:21:41;;;;;;;12.38;1.55;;;3.30;99.90;;;;;;5041582;28;20030;-68
2024/01/14 00:24:06;;;;;;;14.93;1.65;;;3.30;99.90;;;;;;5042054;28;20029;-69
2024/01/14 00:26:32;;;;;;;16.33;1.20;;;3.30;99.90;;;;;;5041516;28;20017;-68
2024/01/14 00:29:02;;;;;;;16.92;2.25;;;3.30;99.90;;;;;;5041887;28;20059;-69
2024/01/14 00:31:28;;;;;;;9.85;1.23;;;3.30;99.90;;;;;;5041692;28;20105;-68
2024/01/14 00:33:53;;;;;;;8.50;1.08;;;3.40;99.90;;;;;;5041305;28;20069;-68
2024/01/14 00:36:19;;;;;;;11.88;1.52;;;3.40;99.90;;;;;;5042131;28;20025;-66
2024/01/14 00:38:45;;;;;;;14.75;1.25;;;3.40;99.90;;;;;;5041459;28;20017;-68
2024/01/14 00:41:11;;;;;;;12.75;1.85;;;3.40;99.90;;;;;;5041585;28;20030;-67
2024/01/14 00:43:37;;;;;;;14.02;1.63;;;3.40;99.90;;;;;;5041153;28;20026;-69
2024/01/14 00:46:04;;;;;;;9.65;1.42;;;3.40;99.90;;;;;;5040192;28;20034;-68
2024/01/14 00:48:30;;;;;;;9.05;1.48;;;3.50;99.90;;;;;;5041425;28;20123;-68
2024/01/14 00:50:56;;;;;;;9.18;1.30;;;3.40;99.90;;;;;;5041432;28;20065;-69
2024/01/14 00:53:22;;;;;;;8.85;1.38;;;3.50;99.90;;;;;;5041036;28;20350;-67
2024/01/14 00:55:48;;;;;;;9.15;0.90;;;3.50;99.90;;;;;;5041394;28;20475;-68
2024/01/14 00:58:13;;;;;;;8.80;1.02;;;3.50;99.90;;;;;;5041642;28;20029;-69
2024/01/14 01:00:39;;;;;;;8.40;1.23;;;3.50;99.90;;;;;;5041255;28;20045;-67
2024/01/14 01:03:05;;;;;;;10.10;1.17;;;3.50;99.90;;;;;;5041219;28;20032;-67
2024/01/14 01:05:30;;;;;;;7.80;1.30;;;3.50;99.90;;;;;;5041538;28;20021;-69
2024/01/14 01:07:56;;;;;;;11.75;0.77;;;3.50;99.90;;;;;;5039727;28;20386;-69
2024/01/14 01:10:22;;;;;;;7.43;1.23;;;3.50;99.90;;;;;;5041413;28;20038;-71
2024/01/14 01:12:47;;;;;;;8.60;1.13;;;3.50;99.90;;;;;;5041536;28;20025;-68
2024/01/14 01:15:13;;;;;;;12.80;1.60;;;3.50;99.90;;;;;;5039624;28;20075;-68
2024/01/14 01:17:41;;;;;;;12.30;1.48;;;3.50;99.90;;;;;;5041519;28;20017;-69
2024/01/14 01:20:10;;;;;;;7.55;0.98;;;3.50;99.90;;;;;;5041012;28;20052;-68
2024/01/14 01:22:36;;;;;;;16.20;0.90;;;3.50;99.90;;;;;;5040610;28;20021;-68
2024/01/14 01:25:02;;;;;;;13.25;1.42;;;3.50;99.90;;;;;;5041462;28;20049;-69
2024/01/14 01:27:29;;;;;;;10.02;1.40;;;3.40;99.90;;;;;;5041212;28;20060;-68
2024/01/14 01:29:56;;;;;;;6.65;0.90;;;3.50;99.90;;;;;;5043927;28;20022;-68
2024/01/14 01:32:21;;;;;;;12.75;1.13;;;3.40;99.90;;;;;;5045534;28;20025;-69
2024/01/14 01:34:47;;;;;;;9.07;1.02;;;3.50;99.90;;;;;;5045026;28;20052;-68
2024/01/14 01:37:13;;;;;;;9.95;1.00;;;3.50;99.90;;;;;;5044879;28;20033;-70
2024/01/14 01:39:39;;;;;;;8.82;1.42;;;3.50;99.90;;;;;;5044884;28;20022;-68
2024/01/14 01:42:04;;;;;;;9.63;1.10;;;3.50;99.90;;;;;;5044815;28;20053;-68
2024/01/14 01:44:30;;;;;;;17.88;1.85;;;3.50;99.90;;;;;;5044446;28;20379;-67
2024/01/14 01:46:56;;;;;;;16.77;1.38;;;3.60;99.90;;;;;;5045067;28;20053;-68
2024/01/14 01:49:22;;;;;;;20.92;1.63;;;3.60;99.90;;;;;;5044817;28;20028;-68
2024/01/14 01:51:49;;;;;;;11.80;1.88;;;3.50;99.90;;;;;;5044468;28;20363;-68
2024/01/14 01:54:18;;;;;;;13.38;1.58;;;3.60;99.90;;;;;;5044393;28;20029;-68
2024/01/14 01:56:44;;;;;;;14.38;1.20;;;3.60;99.90;;;;;;5043045;28;20498;-68
2024/01/14 01:59:11;;;;;;;12.65;1.40;;;3.60;99.90;;;;;;5044584;28;20013;-67
2024/01/14 02:01:36;;;;;;;16.20;1.23;;;3.60;99.90;;;;;;5044630;28;20029;-67
2024/01/14 02:04:04;;;;;;;12.48;1.33;;;3.60;99.90;;;;;;5044123;28;20050;-70
2024/01/14 02:06:32;;;;;;;22.48;1.83;;;3.60;99.90;;;;;;5044414;28;20136;-70
2024/01/14 02:08:58;;;;;;;9.10;1.45;;;3.60;99.90;;;;;;5044227;28;20028;-69
2024/01/14 02:11:24;;;;;;;8.23;1.55;;;3.60;99.90;;;;;;5041632;28;20102;-68
2024/01/14 02:13:49;;;;;;;11.18;1.20;;;3.60;99.90;;;;;;5044411;28;20474;-67
2024/01/14 02:16:15;;;;;;;16.08;1.20;;;3.60;99.90;;;;;;5044425;28;20029;-68
2024/01/14 02:18:41;;;;;;;13.32;1.95;;;3.60;99.90;;;;;;5043858;28;20020;-68
2024/01/14 02:21:08;;;;;;;18.77;2.28;;;3.60;99.90;;;;;;5042577;28;20030;-67
2024/01/14 02:23:43;;;;;;;20.42;2.13;;;3.80;99.90;;;;;;5042961;28;20048;-68
2024/01/14 02:26:09;;;;;;;21.63;1.80;;;3.60;99.90;;;;;;5043818;28;20067;-68
2024/01/14 02:28:35;;;;;;;9.75;1.60;;;3.70;99.90;;;;;;5043944;28;20021;-68
2024/01/14 02:31:00;;;;;;;20.83;2.05;;;3.60;99.90;;;;;;5043733;28;20030;-67
2024/01/14 02:33:26;;;;;;;12.70;1.65;;;3.70;99.90;;;;;;5042512;28;20021;-68
2024/01/14 02:35:52;;;;;;;17.83;2.58;;;3.70;99.90;;;;;;5044224;28;20080;-69
2024/01/14 02:38:17;;;;;;;20.00;2.00;;;3.60;99.90;;;;;;5043722;28;20026;-70
2024/01/14 02:40:43;;;;;;;19.58;2.55;;;3.70;99.90;;;;;;5043839;28;20096;-68
2024/01/14 02:43:08;;;;;;;21.10;1.98;;;3.70;99.90;;;;;;5042610;28;20025;-67
2024/01/14 02:45:34;;;;;;;17.23;1.90;;;3.70;99.90;;;;;;5043541;28;20022;-68
2024/01/14 02:47:59;;;;;;;26.13;3.10;;;3.70;99.90;;;;;;5043543;28;20038;-68
2024/01/14 02:50:25;;;;;;;18.75;2.42;;;3.70;99.90;;;;;;5043749;28;20025;-68
2024/01/14 02:52:51;;;;;;;23.10;2.40;;;3.70;99.90;;;;;;5043048;28;20029;-69
2024/01/14 02:55:17;;;;;;;22.30;1.92;;;3.70;99.90;;;;;;5043790;28;20067;-69
2024/01/14 02:57:43;;;;;;;23.88;2.20;;;3.70;99.90;;;;;;5043462;28;20026;-69
2024/01/14 03:00:10;;;;;;;16.38;2.25;;;3.60;99.90;;;;;;5042634;28;20017;-68
2024/01/14 03:02:36;;;;;;;23.95;2.25;;;3.60;99.90;;;;;;5043506;28;20013;-68
2024/01/14 03:05:02;;;;;;;25.35;2.83;;;3.60;99.90;;;;;;5043135;28;20050;-67
2024/01/14 03:07:28;;;;;;;20.67;2.17;;;3.50;99.90;;;;;;5042887;28;20507;-67
2024/01/14 03:09:54;;;;;;;15.52;1.90;;;3.60;99.90;;;;;;5043613;28;20022;-68
2024/01/14 03:12:19;;;;;;;22.20;2.88;;;3.60;99.90;;;;;;5043519;28;20123;-68
2024/01/14 03:14:45;;;;;;;24.73;2.33;;;3.60;99.90;;;;;;5041321;28;20679;-68
2024/01/14 03:17:11;;;;;;;17.23;2.38;;;3.60;99.90;;;;;;5043357;28;20030;-68
2024/01/14 03:19:36;;;;;;;22.73;2.30;;;3.60;99.90;;;;;;5043145;28;20030;-68
2024/01/14 03:22:02;;;;;;;20.17;2.35;;;3.50;99.90;;;;;;5042776;28;20462;-68
2024/01/14 03:24:27;;;;;;;18.02;2.35;;;3.60;99.90;;;;;;5043105;28;20064;-68
2024/01/14 03:26:53;;;;;;;23.80;2.85;;;3.60;99.90;;;;;;5058497;28;20044;-69
2024/01/14 03:29:19;;;;;;;15.65;1.92;;;3.50;99.90;;;;;;5042618;28;20880;-68
2024/01/14 03:31:44;;;;;;;14.07;1.92;;;3.60;99.90;;;;;;5042845;28;20099;-69
2024/01/14 03:34:10;;;;;;;18.17;2.30;;;3.50;99.90;;;;;;5041319;28;20038;-68
2024/01/14 03:36:36;;;;;;;23.88;2.28;;;3.50;99.90;;;;;;5042372;28;20033;-67
2024/01/14 03:39:03;;;;;;;15.43;2.05;;;3.50;99.90;;;;;;5041624;28;20022;-70
2024/01/14 03:41:30;;;;;;;21.13;2.63;;;3.50;99.90;;;;;;5042493;28;20036;-68
2024/01/14 03:43:56;;;;;;;21.40;2.22;;;3.50;99.90;;;;;;5042312;28;20382;-68
2024/01/14 03:46:22;;;;;;;26.75;2.60;;;3.40;99.90;;;;;;5042930;28;20077;-70
2024/01/14 03:48:48;;;;;;;17.73;2.17;;;3.50;99.90;;;;;;5042392;28;20033;-69
2024/01/14 03:51:14;;;;;;;23.42;2.55;;;3.50;99.90;;;;;;5041931;28;20485;-67
2024/01/14 03:53:39;;;;;;;18.40;2.70;;;3.40;99.90;;;;;;5041067;28;20029;-68
2024/01/14 03:56:05;;;;;;;14.85;2.17;;;3.40;99.90;;;;;;5042147;28;20069;-67
2024/01/14 03:58:30;;;;;;;24.42;2.60;;;3.40;99.90;;;;;;5040944;28;20033;-68
2024/01/14 04:00:56;;;;;;;16.35;2.90;;;3.40;99.90;;;;;;5040483;28;20029;-68
2024/01/14 04:03:22;;;;;;;16.40;2.03;;;3.30;99.90;;;;;;5041025;28;20077;-69
2024/01/14 04:05:47;;;;;;;14.77;2.65;;;3.30;99.90;;;;;;5041803;28;20122;-67
2024/01/14 04:08:13;;;;;;;17.58;2.28;;;3.20;99.90;;;;;;5042219;28;20029;-68
2024/01/14 04:10:38;;;;;;;15.35;2.38;;;3.20;99.90;;;;;;5040440;28;20029;-67
2024/01/14 04:13:04;;;;;;;12.15;2.00;;;3.20;99.90;;;;;;5042393;28;20144;-69
2024/01/14 04:15:29;;;;;;;18.27;2.28;;;3.20;99.90;;;;;;5041998;28;20475;-69
2024/01/14 04:17:55;;;;;;;23.20;2.10;;;3.10;99.90;;;;;;5040695;28;20053;-68
2024/01/14 04:20:21;;;;;;;19.30;2.17;;;3.20;99.90;;;;;;5042150;28;20462;-68
2024/01/14 04:22:46;;;;;;;19.98;2.60;;;3.20;99.90;;;;;;5042108;28;20033;-69
2024/01/14 04:25:12;;;;;;;23.67;2.42;;;3.20;99.90;;;;;;5041708;28;20089;-69
2024/01/14 04:27:38;;;;;;;19.20;2.00;;;3.20;99.90;;;;;;5039939;28;20056;-68
2024/01/14 04:30:04;;;;;;;21.92;2.20;;;3.20;99.90;;;;;;5040141;28;20120;-69
2024/01/14 04:32:30;;;;;;;17.25;2.08;;;3.10;99.90;;;;;;5041418;28;20021;-68
2024/01/14 04:34:55;;;;;;;18.30;1.83;;;3.10;99.90;;;;;;5042146;28;20072;-68
2024/01/14 04:37:21;;;;;;;13.18;1.83;;;3.20;99.90;;;;;;5041904;28;20033;-69
2024/01/14 04:39:46;;;;;;;18.20;1.75;;;3.10;99.90;;;;;;5040943;28;20044;-69
2024/01/14 04:42:12;;;;;;;16.58;1.80;;;3.10;99.90;;;;;;5041645;28;20080;-69
2024/01/14 04:44:37;;;;;;;21.80;2.17;;;3.00;99.90;;;;;;5041517;28;20033;-68
2024/01/14 04:47:03;;;;;;;11.10;1.48;;;3.00;99.90;;;;;;5041545;28;20033;-67
2024/01/14 04:49:29;;;;;;;16.52;1.75;;;3.00;99.90;;;;;;5040282;28;20037;-67
2024/01/14 04:51:55;;;;;;;18.02;2.35;;;3.00;99.90;;;;;;5041533;28;20022;-68
2024/01/14 04:54:20;;;;;;;15.25;1.80;;;3.10;99.90;;;;;;5041638;28;20478;-68
2024/01/14 04:56:46;;;;;;;24.92;2.20;;;3.10;99.90;;;;;;5041662;28;20033;-68
2024/01/14 04:59:11;;;;;;;15.60;2.38;;;3.10;99.90;;;;;;5038533;28;20041;-68
2024/01/14 05:01:37;;;;;;;19.45;2.03;;;3.00;99.90;;;;;;5039937;28;20037;-67
2024/01/14 05:04:03;;;;;;;17.88;2.60;;;3.00;99.90;;;;;;5040058;28;20060;-68
2024/01/14 05:06:29;;;;;;;17.15;2.10;;;3.00;99.90;;;;;;5044741;28;20151;-68
2024/01/14 05:08:55;;;;;;;14.32;2.17;;;3.00;99.90;;;;;;5044822;28;20021;-67
2024/01/14 05:11:20;;;;;;;20.27;3.05;;;2.90;99.90;;;;;;5045664;28;20184;-68
2024/01/14 05:13:46;;;;;;;17.92;2.20;;;2.90;99.90;;;;;;5045107;28;20052;-67
2024/01/14 05:16:11;;;;;;;25.48;2.30;;;2.80;99.90;;;;;;5045433;28;20021;-67
2024/01/14 05:18:37;;;;;;;23.25;2.70;;;2.80;99.90;;;;;;5045383;28;20025;-67
2024/01/14 05:21:03;;;;;;;16.40;2.15;;;2.80;99.90;;;;;;5045112;28;20061;-67
2024/01/14 05:23:29;;;;;;;31.13;2.63;;;2.70;99.90;;;;;;5045402;28;20028;-67
2024/01/14 05:25:54;;;;;;;28.88;3.17;;;2.60;99.90;;;;;;5042791;28;20029;-68
2024/01/14 05:28:20;;;;;;;16.50;3.25;;;2.60;99.90;;;;;;5038807;28;20026;-68
2024/01/14 05:30:47;;;;;;;27.95;3.55;;;2.60;99.90;;;;;;5044869;28;20068;-67
2024/01/14 05:33:13;;;;;;;23.40;2.90;;;2.60;99.90;;;;;;5043419;28;20098;-67
2024/01/14 05:35:38;;;;;;;22.35;3.20;;;2.50;99.90;;;;;;5041342;28;20053;-69
2024/01/14 05:38:04;;;;;;;22.48;2.63;;;2.60;99.90;;;;;;5039527;28;20076;-66
2024/01/14 05:40:29;;;;;;;17.98;2.17;;;2.50;99.90;;;;;;5041664;28;20026;-69
2024/01/14 05:42:55;;;;;;;15.13;2.33;;;2.50;99.90;;;;;;5044641;28;20029;-67
2024/01/14 05:45:21;;;;;;;22.63;2.67;;;2.40;99.90;;;;;;5043612;28;20493;-67
2024/01/14 05:47:46;;;;;;;15.45;2.38;;;2.40;99.90;;;;;;5043646;28;20034;-68
2024/01/14 05:50:12;;;;;;;20.05;2.45;;;2.40;99.90;;;;;;5043629;28;20056;-68
2024/01/14 05:52:38;;;;;;;16.80;2.05;;;2.40;99.90;;;;;;5044603;28;20025;-68
2024/01/14 05:55:05;;;;;;;18.30;2.65;;;2.40;99.90;;;;;;5042890;28;20037;-67
2024/01/14 05:57:30;;;;;;;18.85;2.45;;;2.30;99.90;;;;;;5044379;28;20034;-68
2024/01/14 05:59:56;;;;;;;18.63;2.85;;;2.40;99.90;;;;;;5044284;28;20067;-69
2024/01/14 06:02:22;;;;;;;21.65;2.58;;;2.40;99.90;;;;;;5044338;28;20416;-68
2024/01/14 06:04:47;;;;;;;16.77;1.75;;;2.40;99.90;;;;;;5044246;28;20075;-68
2024/01/14 06:07:13;;;;;;;13.65;1.75;;;2.30;99.90;;;;;;5044463;28;20033;-67
2024/01/14 06:09:38;;;;;;;14.38;2.25;;;2.30;99.90;;;;;;5043972;28;20044;-67
2024/01/14 06:12:04;;;;;;;18.25;2.17;;;2.30;99.90;;;;;;5041248;28;20028;-68
2024/01/14 06:14:30;;;;;;;21.63;2.65;;;2.30;99.90;;;;;;5043535;28;20036;-67
2024/01/14 06:16:55;;;;;;;16.60;2.17;;;2.30;99.90;;;;;;5044065;28;20032;-67
2024/01/14 06:19:21;;;;;;;17.73;2.40;;;2.30;99.90;;;;;;5044565;28;20029;-67
2024/01/14 06:21:46;;;;;;;20.40;2.78;;;2.30;99.90;;;;;;5044208;28;20068;-67
2024/01/14 06:24:15;;;;;;;18.70;2.35;;;2.30;99.90;;;;;;5043358;28;20034;-68
2024/01/14 06:26:41;;;;;;;25.00;2.60;;;2.30;99.90;;;;;;5044059;28;20017;-67
2024/01/14 06:29:06;;;;;;;10.45;1.60;;;2.30;99.90;;;;;;5043502;28;20081;-68
2024/01/14 06:31:32;;;;;;;18.45;2.53;;;2.30;99.90;;;;;;5043416;28;20022;-67
2024/01/14 06:33:57;;;;;;;17.95;1.67;;;2.30;99.90;;;;;;5042266;28;20046;-67
2024/01/14 06:36:23;;;;;;;27.25;2.65;;;2.20;99.90;;;;;;5043951;28;20021;-68
2024/01/14 06:38:48;;;;;;;21.90;2.40;;;2.20;99.90;;;;;;5037414;28;20029;-67
2024/01/14 06:41:20;;;;;;;23.10;2.80;;;2.30;99.90;;;;;;5040060;28;20021;-67
2024/01/14 06:43:46;;;;;;;21.77;2.50;;;2.30;99.90;;;;;;5040534;28;20022;-67
2024/01/14 06:46:12;;;;;;;22.02;2.10;;;2.20;99.90;;;;;;5040002;28;20034;-68
2024/01/14 06:48:38;;;;;;;20.33;2.25;;;2.20;99.90;;;;;;5043602;28;20026;-66
2024/01/14 06:51:04;;;;;;;17.95;2.63;;;2.30;99.90;;;;;;5043332;28;20575;-67
2024/01/14 06:53:29;;;;;;;25.23;2.72;;;2.20;99.90;;;;;;5043325;28;20326;-69
2024/01/14 06:55:55;;;;;;;16.85;2.22;;;2.20;99.90;;;;;;5043533;28;20033;-68
2024/01/14 06:58:21;;;;;;;16.10;2.42;;;2.20;99.90;;;;;;5043466;28;20527;-68
2024/01/14 07:00:46;;;;;;;24.23;2.55;;;2.20;99.90;;;;;;5040025;28;20366;-67
2024/01/14 07:03:12;;;;;;;21.80;2.15;;;2.30;99.90;;;;;;5041251;28;20041;-66
2024/01/14 07:05:37;;;;;;;23.25;2.85;;;2.30;99.90;;;;;;5038973;28;20600;-67
2024/01/14 07:08:04;;;;;;;15.48;2.42;;;2.30;99.90;;;;;;5040396;28;20158;-67
2024/01/14 07:10:30;;;;;;;20.85;2.80;;;2.30;99.90;;;;;;5041636;28;20024;-66
2024/01/14 07:12:57;;;;;;;16.23;2.50;;;2.30;99.90;;;;;;5040530;28;20139;-67
2024/01/14 07:15:23;;;;;;;28.00;3.05;;;2.30;99.90;;;;;;5039861;28;20394;-68
2024/01/14 07:17:49;;;;;;;21.98;3.03;;;2.30;99.90;;;;;;5038031;28;20044;-67
2024/01/14 07:20:15;;;;;;;16.00;2.08;;;2.30;99.90;;;;;;5040146;28;20034;-68
2024/01/14 07:22:41;;;;;;;29.42;3.13;;;2.40;99.90;;;;;;5036002;28;20128;-67
2024/01/14 07:25:08;;;;;;;18.73;2.22;;;2.40;99.90;;;;;;5040552;28;20017;-66
2024/01/14 07:27:34;;;;;;;14.55;2.50;;;2.40;99.90;;;;;;5037211;28;20112;-67
2024/01/14 07:29:59;;;;;;;15.70;2.42;;;2.40;99.90;;;;;;5040403;28;20018;-67
2024/01/14 07:32:25;;;;;;;15.93;1.80;;;2.40;99.90;;;;;;5039210;28;20630;-67
2024/01/14 07:34:51;;;;;;;30.13;3.10;;;2.40;99.90;;;;;;5038795;28;20038;-68
2024/01/14 07:37:16;;;;;;;14.05;2.00;;;2.40;99.90;;;;;;5037165;28;20454;-67
2024/01/14 07:39:42;;;;;;;19.13;1.98;;;2.40;99.90;;;;;;5038270;28;20026;-66
2024/01/14 07:42:07;;;;;;;25.20;3.00;;;2.40;99.90;;;;;;5040051;28;20018;-66
2024/01/14 07:44:33;;;;;;;24.73;2.65;;;2.30;99.90;;;;;;5039649;28;20127;-66
2024/01/14 07:46:59;;;;;;;15.50;2.25;;;2.30;99.90;;;;;;5040108;28;20044;-67
2024/01/14 07:49:24;;;;;;;15.52;2.75;;;2.30;99.90;;;;;;5042324;28;20030;-68
2024/01/14 07:51:50;;;;;;;25.75;3.30;;;2.30;99.90;;;;;;5038131;28;20525;-68
2024/01/14 07:54:15;;;;;;;37.00;3.40;;;2.20;99.90;;;;;;5041715;28;20064;-68
2024/01/14 07:56:41;;;;;;;23.92;3.28;;;2.30;99.90;;;;;;5040467;28;20402;-68
2024/01/14 07:59:06;;;;;;;27.23;2.95;;;2.30;99.90;;;;;;5040114;28;20079;-66
2024/01/14 08:01:32;;;;;;;25.50;3.42;;;2.20;99.90;;;;;;5038449;28;20029;-67
2024/01/14 08:03:58;;;;;;;27.60;3.70;;;2.30;99.90;;;;;;5038221;28;20033;-67
2024/01/14 08:06:24;;;;;;;16.42;2.65;;;2.30;99.90;;;;;;5040515;28;20061;-68
2024/01/14 08:08:50;;;;;;;23.70;3.70;;;2.30;99.90;;;;;;5040826;28;20484;-66
2024/01/14 08:11:16;;;;;;;24.23;3.47;;;2.40;99.90;;;;;;5039320;28;20093;-67
2024/01/14 08:13:42;;;;;;;20.52;3.50;;;2.40;99.90;;;;;;5039623;28;20029;-68
2024/01/14 08:16:08;;;;;;;21.25;3.03;;;2.40;99.90;;;;;;5038913;28;20120;-67
2024/01/14 08:18:33;;;;;;;22.60;2.88;;;2.40;99.90;;;;;;5041393;28;21091;-67
2024/01/14 08:21:00;;;;;;;26.80;3.55;;;2.40;99.90;;;;;;5040547;28;20128;-67
2024/01/14 08:23:26;;;;;;;21.73;3.53;;;2.60;99.90;;;;;;5041486;28;20043;-66
2024/01/14 08:25:52;;;;;;;23.77;3.25;;;2.80;99.90;;;;;;5039222;28;20018;-68
2024/01/14 08:28:18;;;;;;;16.52;3.17;;;3.00;99.90;;;;;;5040640;28;20025;-67
2024/01/14 08:30:43;;;;;;;23.15;3.13;;;3.20;99.90;;;;;;5041618;28;20021;-66
2024/01/14 08:33:09;;;;;;;19.33;2.83;;;3.50;99.90;;;;;;5041100;28;20026;-66
2024/01/14 08:35:34;;;;;;;13.90;2.45;;;3.60;99.90;;;;;;5041196;28;20116;-67
2024/01/14 08:38:00;;;;;;;16.63;2.45;;;3.80;99.90;;;;;;5039448;28;20475;-67
2024/01/14 08:40:26;;;;;;;18.98;2.90;;;4.10;99.90;;;;;;5036458;28;20026;-67
2024/01/14 08:42:51;;;;;;;19.23;3.92;;;4.30;99.90;;;;;;5036987;28;20041;-68
2024/01/14 08:45:17;;;;;;;17.38;2.65;;;4.50;99.90;;;;;;5040396;28;20057;-68
2024/01/14 08:47:43;;;;;;;18.90;3.65;;;4.50;99.90;;;;;;5040452;28;20020;-66
2024/01/14 08:50:09;;;;;;;16.63;2.70;;;4.80;99.90;;;;;;5040519;28;20033;-66
2024/01/14 08:52:37;;;;;;;14.43;2.10;;;5.10;99.90;;;;;;5040144;28;20028;-67
2024/01/14 08:55:03;;;;;;;23.40;2.63;;;5.30;99.90;;;;;;5037530;28;20521;-67
2024/01/14 08:57:29;;;;;;;10.68;2.15;;;5.10;99.90;;;;;;5038631;28;20363;-67
2024/01/14 08:59:56;;;;;;;21.40;2.33;;;4.80;99.90;;;;;;5041976;28;20032;-68
2024/01/14 09:02:22;;;;;;;19.92;2.97;;;4.60;99.90;;;;;;5037555;28;20052;-69
2024/01/14 09:04:47;;;;;;;19.58;2.55;;;4.30;99.90;;;;;;5033951;28;20041;-67
2024/01/14 09:07:13;;;;;;;13.20;2.47;;;4.10;99.90;;;;;;5040190;28;20035;-67
2024/01/14 09:09:38;;;;;;;18.95;2.35;;;3.90;99.90;;;;;;5041130;28;20056;-68
2024/01/14 09:12:04;;;;;;;20.42;3.30;;;3.80;99.90;;;;;;5038823;28;20040;-69
2024/01/14 09:14:30;;;;;;;19.80;3.00;;;3.70;99.90;;;;;;5040580;28;20064;-67
2024/01/14 09:17:04;;;;;;;21.98;4.15;;;3.60;99.90;;;;;;5034774;28;20033;-68
2024/01/14 09:19:30;;;;;;;26.10;4.65;;;3.60;99.90;;;;;;5038492;28;20044;-69
2024/01/14 09:21:55;;;;;;;20.33;4.30;;;3.50;99.90;;;;;;5041207;28;20045;-69
2024/01/14 09:24:21;;;;;;;22.30;3.78;;;3.60;99.90;;;;;;5039138;28;20021;-68
2024/01/14 09:26:47;;;;;;;15.88;2.63;;;3.80;99.90;;;;;;5037695;28;20036;-69
2024/01/14 09:29:13;;;;;;;17.75;3.25;;;3.90;99.90;;;;;;5036976;28;20028;-67
2024/01/14 09:31:38;;;;;;;23.27;2.55;;;3.90;99.90;;;;;;5035347;28;20089;-68
2024/01/14 09:34:04;;;;;;;17.30;4.45;;;3.90;99.90;;;;;;5038001;28;20025;-68
2024/01/14 09:36:31;;;;;;;21.70;3.10;;;3.90;99.90;;;;;;5037572;28;20099;-68
2024/01/14 09:38:57;;;;;;;28.58;3.55;;;4.00;99.90;;;;;;5036325;28;20088;-68
2024/01/14 09:41:28;;;;;;;17.90;2.88;;;3.90;99.90;;;;;;5038790;28;20033;-69
2024/01/14 09:43:56;;;;;;;18.92;2.65;;;4.00;99.90;;;;;;5037319;28;20033;-69
2024/01/14 09:46:22;;;;;;;15.05;2.70;;;4.20;99.90;;;;;;5038941;28;20052;-70
2024/01/14 09:48:48;;;;;;;25.23;3.45;;;4.30;99.90;;;;;;5036599;28;20014;-68
2024/01/14 09:51:18;;;;;;;24.98;3.60;;;4.40;99.90;;;;;;5041020;28;20030;-67
2024/01/14 09:53:45;;;;;;;16.23;2.92;;;4.30;99.90;;;;;;5041715;28;20026;-68
2024/01/14 09:56:13;;;;;;;19.60;2.65;;;4.20;99.90;;;;;;5040022;28;20141;-68
2024/01/14 09:58:40;;;;;;;20.95;2.92;;;4.10;99.90;;;;;;5041620;28;20018;-68
2024/01/14 10:01:09;;;;;;;17.83;2.58;;;4.10;99.90;;;;;;5042827;28;20045;-66
2024/01/14 10:03:35;;;;;;;22.17;3.72;;;4.10;99.90;;;;;;5041167;28;20041;-67
2024/01/14 10:06:01;;;;;;;16.77;3.03;;;4.40;99.90;;;;;;5040857;28;20060;-69
2024/01/14 10:08:27;;;;;;;19.38;2.88;;;4.60;99.90;;;;;;5041400;28;20033;-70
2024/01/14 10:10:53;;;;;;;16.27;2.63;;;4.80;99.90;;;;;;5040403;28;20037;-68
2024/01/14 10:13:22;;;;;;;15.60;2.72;;;4.70;99.90;;;;;;5039781;28;20061;-67
2024/01/14 10:15:48;;;;;;;21.90;2.72;;;4.70;99.90;;;;;;5038010;28;20075;-66
2024/01/14 10:18:17;;;;;;;27.98;2.70;;;4.70;99.90;;;;;;5036149;28;20052;-67
2024/01/14 10:20:42;;;;;;;18.20;2.50;;;4.50;99.90;;;;;;5041659;28;20115;-67
2024/01/14 10:23:08;;;;;;;17.42;2.20;;;4.40;99.90;;;;;;5041969;28;20025;-66
2024/01/14 10:25:34;;;;;;;16.40;2.60;;;4.40;99.90;;;;;;5041881;28;20040;-68
2024/01/14 10:28:04;;;;;;;19.27;3.00;;;4.40;99.90;;;;;;5039035;28;20044;-67
2024/01/14 10:30:29;;;;;;;15.93;2.63;;;4.40;99.90;;;;;;5042222;28;20099;-67
2024/01/14 10:32:55;;;;;;;17.63;2.42;;;4.60;99.90;;;;;;5041542;28;20033;-69
2024/01/14 10:35:23;;;;;;;18.60;2.90;;;5.10;99.90;;;;;;5041137;28;20132;-68
2024/01/14 10:37:49;;;;;;;12.18;2.65;;;5.20;99.90;;;;;;5041409;28;20025;-70
2024/01/14 10:40:17;;;;;;;13.75;2.47;;;5.20;99.90;;;;;;5038550;28;20099;-67
2024/01/14 10:42:43;;;;;;;18.05;2.65;;;5.10;99.90;;;;;;5039457;28;20029;-67
2024/01/14 10:45:09;;;;;;;12.63;2.53;;;5.00;99.90;;;;;;5041445;28;20026;-68
2024/01/14 10:47:35;;;;;;;14.57;3.42;;;4.90;99.90;;;;;;5039926;28;20098;-68
2024/01/14 10:50:01;;;;;;;14.32;2.38;;;4.80;99.90;;;;;;5038928;28;20095;-69
2024/01/14 10:52:33;;;;;;;14.07;2.10;;;4.70;99.90;;;;;;5037903;28;20025;-68
2024/01/14 10:55:09;;;;;;;21.33;2.75;;;4.70;99.90;;;;;;5039620;28;20049;-69
2024/01/14 10:57:36;;;;;;;19.42;2.53;;;4.80;99.90;;;;;;5039699;28;20025;-69
2024/01/14 11:00:10;;;;;;;14.40;3.10;;;4.70;99.90;;;;;;5040514;28;20154;-67
2024/01/14 11:02:37;;;;;;;21.27;3.28;;;4.80;99.90;;;;;;5029266;28;20122;-69
2024/01/14 11:05:05;;;;;;;18.60;2.65;;;4.80;99.90;;;;;;5024266;28;20038;-66
2024/01/14 11:07:33;;;;;;;25.98;3.28;;;4.80;99.90;;;;;;5036300;28;20033;-68
2024/01/14 11:10:00;;;;;;;16.45;3.30;;;5.20;99.90;;;;;;5041493;28;20042;-71
2024/01/14 11:12:39;;;;;;;15.13;2.53;;;5.80;99.90;;;;;;5040732;28;20025;-69
2024/01/14 11:15:10;;;;;;;20.75;2.40;;;6.40;99.90;;;;;;5040796;28;20032;-67
2024/01/14 11:17:53;;;;;;;11.50;2.33;;;6.90;99.90;;;;;;5042598;28;20429;-67
2024/01/14 11:20:24;;;;;;;16.10;2.67;;;7.00;99.90;;;;;;5043544;28;20025;-67
2024/01/14 11:22:51;;;;;;;12.35;2.50;;;7.20;99.90;;;;;;5042844;28;20030;-67
2024/01/14 11:25:16;;;;;;;16.83;2.80;;;7.20;99.90;;;;;;5035051;28;20782;-69
2024/01/14 11:27:43;;;;;;;16.92;2.85;;;7.10;99.90;;;;;;5037802;28;20029;-67
2024/01/14 11:30:17;;;;;;;12.07;2.20;;;6.90;99.90;;;;;;5041487;28;20912;-67
2024/01/14 11:32:43;;;;;;;14.93;2.70;;;6.60;99.90;;;;;;5040428;28;20056;-67
2024/01/14 11:35:10;;;;;;;10.35;2.67;;;6.10;99.90;;;;;;5041104;28;20033;-69
2024/01/14 11:37:48;;;;;;;18.73;2.55;;;5.90;99.90;;;;;;5042311;28;20453;-69
2024/01/14 11:40:27;;;;;;;17.42;2.67;;;5.70;99.90;;;;;;5043490;28;20032;-67
2024/01/14 11:43:01;;;;;;;21.05;3.60;;;5.60;99.90;;;;;;5043165;28;20041;-67
2024/01/14 11:45:26;;;;;;;22.83;2.95;;;5.60;99.90;;;;;;5041268;28;20025;-71
2024/01/14 11:47:56;;;;;;;16.42;3.47;;;5.50;99.90;;;;;;5043007;28;20025;-69
2024/01/14 11:50:24;;;;;;;16.35;2.72;;;5.50;99.90;;;;;;5039291;28;20056;-69
2024/01/14 11:52:55;;;;;;;17.17;2.58;;;5.40;99.90;;;;;;5040907;28;20033;-68
2024/01/14 11:55:26;;;;;;;19.88;3.38;;;5.30;99.90;;;;;;5040694;28;20029;-68
2024/01/14 11:57:53;;;;;;;15.82;3.00;;;5.20;99.90;;;;;;5041403;28;20087;-69
2024/01/14 12:00:23;;;;;;;19.10;3.20;;;5.30;99.90;;;;;;5040018;28;20028;-67
2024/01/14 12:03:03;;;;;;;16.05;2.72;;;5.20;99.90;;;;;;5041760;28;20091;-67
2024/01/14 12:05:29;;;;;;;13.20;3.17;;;5.20;99.90;;;;;;5041497;28;20080;-68
2024/01/14 12:07:54;;;;;;;14.38;2.78;;;5.10;99.90;;;;;;5040523;28;20033;-68
2024/01/14 12:10:20;;;;;;;14.68;3.25;;;5.10;99.90;;;;;;5042857;28;20022;-67
2024/01/14 12:12:46;;;;;;;17.92;3.45;;;5.20;99.90;;;;;;5041747;28;20052;-67
2024/01/14 12:15:14;;;;;;;17.70;5.55;;;5.20;99.90;;;;;;5039299;28;20045;-68
2024/01/14 12:17:39;;;;;;;17.63;3.78;;;5.40;99.90;;;;;;5041428;28;20104;-67
2024/01/14 12:20:07;;;;;;;14.77;3.25;;;5.50;99.90;;;;;;5042075;28;20103;-68
2024/01/14 12:22:35;;;;;;;17.70;4.32;;;5.70;99.90;;;;;;5042164;28;20149;-66
2024/01/14 12:25:01;;;;;;;15.02;2.63;;;5.70;99.90;;;;;;5041139;28;20021;-69
2024/01/14 12:27:27;;;;;;;11.95;3.08;;;5.60;99.90;;;;;;5040533;28;20537;-71
2024/01/14 12:29:52;;;;;;;13.82;2.78;;;5.60;99.90;;;;;;5038650;28;20052;-66
2024/01/14 12:32:18;;;;;;;13.90;3.00;;;5.30;99.90;;;;;;5038150;28;20033;-66
2024/01/14 12:34:44;;;;;;;15.40;2.58;;;5.30;99.90;;;;;;5038111;28;20050;-68
2024/01/14 12:37:10;;;;;;;21.08;3.03;;;5.20;99.90;;;;;;5040147;28;20014;-68
2024/01/14 12:39:36;;;;;;;10.30;3.00;;;5.20;99.90;;;;;;5039909;28;20088;-67
2024/01/14 12:42:02;;;;;;;23.15;4.75;;;5.10;99.90;;;;;;5039815;28;20029;-67
2024/01/14 12:44:32;;;;;;;17.38;2.60;;;5.10;99.90;;;;;;5041113;28;20090;-67